Time;durP1;ratioP1;P1;durP2;ratioP2;P2;SDS_P1;SDS_P2;PMS_P1;PMS_P2;Temp;Humidity;BMP_temperature;BMP_pressure;BME280_temperature;BME280_humidity;BME280_pressure;Samples;Min_cycle;Max_cycle;Signal;HPM_P1;HPM_P2
2023/09/14 00:02:02;;;;;;;4.35;2.78;;;;;;;17.91;100.00;99179.66;4948405;28;20030;-76
2023/09/14 00:04:27;;;;;;;5.55;2.90;;;;;;;17.78;100.00;99164.31;4966253;28;20038;-77
2023/09/14 00:06:52;;;;;;;4.68;2.72;;;;;;;17.88;100.00;99167.28;4987729;28;20030;-77
2023/09/14 00:09:18;;;;;;;7.28;2.70;;;;;;;17.80;100.00;99169.59;4978042;28;20050;-77
2023/09/14 00:11:43;;;;;;;3.65;2.60;;;;;;;17.78;100.00;99158.00;4982683;28;20030;-77
2023/09/14 00:14:08;;;;;;;5.43;2.88;;;;;;;17.79;100.00;99157.81;4953868;28;20150;-78
2023/09/14 00:16:33;;;;;;;4.13;2.67;;;;;;;17.66;100.00;99139.72;4979908;28;20058;-77
2023/09/14 00:18:59;;;;;;;5.32;3.05;;;;;;;17.62;100.00;99127.59;4973938;28;20027;-77
2023/09/14 00:21:24;;;;;;;3.80;2.75;;;;;;;17.67;100.00;99155.06;4970693;28;20064;-77
2023/09/14 00:23:49;;;;;;;3.58;2.60;;;;;;;17.63;100.00;99147.56;4957653;28;20062;-77
2023/09/14 00:26:15;;;;;;;4.00;2.70;;;;;;;17.48;100.00;99143.44;4956623;28;20085;-77
2023/09/14 00:28:40;;;;;;;3.97;2.50;;;;;;;17.42;100.00;99160.81;4970464;28;20085;-78
2023/09/14 00:31:06;;;;;;;4.55;3.00;;;;;;;17.27;100.00;99155.81;4969536;28;20097;-77
2023/09/14 00:33:31;;;;;;;4.25;2.65;;;;;;;17.35;100.00;99176.50;4956931;28;20021;-77
2023/09/14 00:35:56;;;;;;;4.75;2.78;;;;;;;17.29;100.00;99181.03;4963342;28;20413;-77
2023/09/14 00:38:22;;;;;;;4.65;3.00;;;;;;;17.11;100.00;99162.00;4968358;28;20042;-77
2023/09/14 00:40:48;;;;;;;4.75;3.03;;;;;;;17.11;100.00;99194.81;4958291;28;20117;-77
2023/09/14 00:43:14;;;;;;;3.75;2.80;;;;;;;17.18;100.00;99198.25;4963057;28;20436;-77
2023/09/14 00:45:40;;;;;;;3.75;2.80;;;;;;;16.98;100.00;99162.25;4980474;28;20037;-76
2023/09/14 00:48:06;;;;;;;3.05;2.75;;;;;;;17.20;100.00;99196.13;4976405;28;20069;-77
2023/09/14 00:50:33;;;;;;;3.63;2.55;;;;;;;17.22;100.00;99206.81;4974756;28;20034;-77
2023/09/14 00:53:06;;;;;;;4.57;2.55;;;;;;;17.21;100.00;99205.16;4969630;28;20113;-77
2023/09/14 00:55:32;;;;;;;4.68;2.92;;;;;;;17.09;100.00;99186.84;4976232;28;20035;-76
2023/09/14 00:57:58;;;;;;;4.95;2.60;;;;;;;17.10;100.00;99206.81;4973655;28;20019;-77
2023/09/14 01:00:23;;;;;;;4.32;3.05;;;;;;;17.02;100.00;99205.25;4971007;28;20110;-75
2023/09/14 01:02:58;;;;;;;2.97;2.38;;;;;;;17.03;100.00;99206.94;4953732;28;20114;-77
2023/09/14 01:05:28;;;;;;;3.63;2.85;;;;;;;16.76;100.00;99168.22;4973970;28;20626;-77
2023/09/14 01:07:53;;;;;;;4.55;2.83;;;;;;;16.97;100.00;99190.63;4975306;28;20061;-77
2023/09/14 01:10:19;;;;;;;4.22;2.60;;;;;;;17.04;100.00;99203.13;4956930;28;20553;-77
2023/09/14 01:12:47;;;;;;;3.85;3.00;;;;;;;16.94;100.00;99182.91;4972093;28;20085;-75
2023/09/14 01:15:15;;;;;;;4.53;2.60;;;;;;;17.09;100.00;99203.25;4977723;28;20545;-77
2023/09/14 01:17:55;;;;;;;4.63;2.63;;;;;;;17.16;100.00;99196.81;4971452;28;20475;-77
2023/09/14 01:20:53;;;;;;;5.93;2.72;;;;;;;17.20;100.00;99211.69;4977550;28;20038;-77
2023/09/14 01:24:07;;;;;;;3.75;2.55;;;;;;;17.13;100.00;99194.56;4969520;28;20030;-77
2023/09/14 01:26:33;;;;;;;3.35;2.10;;;;;;;17.26;100.00;99200.63;4975513;28;20030;-76
2023/09/14 01:29:00;;;;;;;3.10;2.33;;;;;;;17.29;100.00;99193.84;4974739;28;20034;-77
2023/09/14 01:31:26;;;;;;;2.70;2.05;;;;;;;17.28;100.00;99181.25;4975565;28;20058;-77
2023/09/14 01:33:51;;;;;;;3.35;1.90;;;;;;;17.30;100.00;99193.63;4954089;28;20051;-77
2023/09/14 01:36:25;;;;;;;2.80;2.17;;;;;;;17.39;100.00;99201.47;4966985;28;20035;-76
2023/09/14 01:38:53;;;;;;;4.15;2.20;;;;;;;17.26;100.00;99195.16;4958473;28;20113;-77
2023/09/14 01:41:19;;;;;;;2.85;2.10;;;;;;;17.33;100.00;99196.97;4955802;28;20049;-75
2023/09/14 01:43:48;;;;;;;2.78;2.08;;;;;;;17.27;100.00;99193.28;4969477;28;20033;-77
2023/09/14 01:46:13;;;;;;;2.35;1.92;;;;;;;17.17;100.00;99202.06;4970111;28;20026;-78
2023/09/14 01:48:39;;;;;;;3.78;1.90;;;;;;;16.92;100.00;99172.19;4975696;28;20119;-77
2023/09/14 01:51:04;;;;;;;5.25;2.08;;;;;;;17.01;100.00;99203.59;4961731;28;20073;-77
2023/09/14 01:53:30;;;;;;;2.85;1.80;;;;;;;17.01;100.00;99209.06;4963722;28;20390;-77
2023/09/14 01:55:55;;;;;;;3.40;2.03;;;;;;;16.99;100.00;99204.91;4957238;28;20181;-77
2023/09/14 01:58:21;;;;;;;3.38;2.03;;;;;;;16.71;100.00;99170.00;4953501;28;20030;-77
2023/09/14 02:00:47;;;;;;;2.70;2.10;;;;;;;16.65;100.00;99190.88;4958677;28;20047;-75
2023/09/14 02:03:12;;;;;;;2.05;1.73;;;;;;;16.33;100.00;99171.19;4979447;28;20553;-77
2023/09/14 02:05:39;;;;;;;3.33;2.15;;;;;;;16.21;100.00;99187.50;4962878;28;20046;-77
2023/09/14 02:08:05;;;;;;;3.03;2.08;;;;;;;16.17;100.00;99206.25;4991498;28;20109;-76
2023/09/14 02:10:30;;;;;;;2.53;2.10;;;;;;;15.91;100.00;99204.69;4973565;28;20027;-77
2023/09/14 02:12:55;;;;;;;3.55;1.92;;;;;;;15.72;100.00;99203.88;4973713;28;20109;-77
2023/09/14 02:15:20;;;;;;;2.85;2.10;;;;;;;15.63;100.00;99216.09;4956650;28;20027;-76
2023/09/14 02:17:46;;;;;;;3.42;2.58;;;;;;;15.47;100.00;99209.34;4951109;28;20093;-77
2023/09/14 02:20:11;;;;;;;3.33;2.20;;;;;;;15.32;100.00;99204.22;4969781;28;20054;-77
2023/09/14 02:22:37;;;;;;;2.85;2.03;;;;;;;15.33;100.00;99221.44;4958316;28;20491;-77
2023/09/14 02:25:02;;;;;;;3.55;2.08;;;;;;;15.24;100.00;99220.03;4969639;28;20051;-77
2023/09/14 02:27:28;;;;;;;3.50;2.40;;;;;;;15.18;100.00;99219.06;4970803;28;20042;-77
2023/09/14 02:29:54;;;;;;;2.95;2.10;;;;;;;15.07;100.00;99228.78;4972791;28;20045;-77
2023/09/14 02:32:20;;;;;;;4.38;2.60;;;;;;;15.04;100.00;99228.41;4974358;28;20037;-77
2023/09/14 02:34:46;;;;;;;3.38;2.50;;;;;;;14.97;100.00;99209.38;4957301;28;20030;-77
2023/09/14 02:37:11;;;;;;;3.08;2.33;;;;;;;14.92;100.00;99209.19;4973660;28;20368;-77
2023/09/14 02:39:37;;;;;;;5.05;2.78;;;;;;;14.87;100.00;99215.31;4956629;28;20026;-77
2023/09/14 02:42:02;;;;;;;5.32;2.53;;;;;;;14.90;100.00;99235.81;4955950;28;20057;-77
2023/09/14 02:44:28;;;;;;;3.25;2.30;;;;;;;14.80;100.00;99230.03;4992718;28;20057;-77
2023/09/14 02:46:53;;;;;;;5.35;2.22;;;;;;;14.73;100.00;99232.00;4976558;28;20081;-77
2023/09/14 02:49:18;;;;;;;8.07;3.03;;;;;;;14.69;100.00;99237.03;4956125;28;20033;-77
2023/09/14 02:51:43;;;;;;;3.70;2.50;;;;;;;14.59;100.00;99229.34;4972032;28;20034;-77
2023/09/14 02:54:09;;;;;;;3.10;2.35;;;;;;;14.56;100.00;99245.28;4973846;28;20106;-77
2023/09/14 02:56:34;;;;;;;3.67;2.53;;;;;;;14.48;100.00;99247.16;4953991;28;20125;-77
2023/09/14 02:58:59;;;;;;;3.63;2.67;;;;;;;14.26;100.00;99218.59;4977079;28;20022;-77
2023/09/14 03:01:25;;;;;;;7.63;2.95;;;;;;;14.22;100.00;99218.19;4961355;28;20394;-77
2023/09/14 03:03:50;;;;;;;4.88;2.67;;;;;;;14.32;100.00;99247.66;4982486;28;20085;-76
2023/09/14 03:06:16;;;;;;;3.78;2.70;;;;;;;14.23;100.00;99236.22;4963849;28;20038;-77
2023/09/14 03:08:41;;;;;;;4.03;3.08;;;;;;;14.40;100.00;99247.41;4960724;28;20034;-77
2023/09/14 03:11:06;;;;;;;4.63;2.60;;;;;;;14.34;100.00;99242.84;4950771;28;20030;-77
2023/09/14 03:13:31;;;;;;;4.40;2.75;;;;;;;14.42;100.00;99260.81;4973761;28;20133;-77
2023/09/14 03:15:58;;;;;;;5.25;3.05;;;;;;;14.34;100.00;99253.75;4958887;28;20561;-77
2023/09/14 03:18:25;;;;;;;4.28;2.92;;;;;;;14.39;100.00;99263.97;4951501;28;20035;-77
2023/09/14 03:20:52;;;;;;;3.63;2.95;;;;;;;14.29;100.00;99269.06;4964140;28;20482;-75
2023/09/14 03:23:18;;;;;;;3.72;2.80;;;;;;;14.05;100.00;99236.06;4971960;28;20105;-77
2023/09/14 03:25:43;;;;;;;4.82;2.92;;;;;;;14.10;100.00;99260.75;4970948;28;20160;-77
2023/09/14 03:28:09;;;;;;;5.70;3.42;;;;;;;14.13;100.00;99245.88;4966362;28;20034;-76
2023/09/14 03:30:35;;;;;;;4.88;3.30;;;;;;;14.17;100.00;99277.91;4954166;28;20034;-75
2023/09/14 03:33:00;;;;;;;4.47;2.97;;;;;;;14.13;100.00;99273.91;4980193;28;20135;-77
2023/09/14 03:35:25;;;;;;;5.57;3.00;;;;;;;14.12;100.00;99261.38;4971773;28;20195;-77
2023/09/14 03:37:51;;;;;;;5.88;3.10;;;;;;;14.21;100.00;99281.84;4953738;28;20026;-77
2023/09/14 03:40:16;;;;;;;4.10;3.10;;;;;;;14.20;100.00;99277.47;4946390;28;20043;-76
2023/09/14 03:42:41;;;;;;;7.43;3.33;;;;;;;14.23;100.00;99257.97;4954807;28;20402;-77
2023/09/14 03:45:08;;;;;;;4.55;3.25;;;;;;;14.15;100.00;99247.34;4969382;28;20056;-76
2023/09/14 03:47:33;;;;;;;8.38;3.30;;;;;;;14.43;100.00;99270.66;4953695;28;20520;-77
2023/09/14 03:49:58;;;;;;;6.82;3.20;;;;;;;14.38;100.00;99256.84;4954911;28;20027;-77
2023/09/14 03:52:24;;;;;;;7.13;3.03;;;;;;;14.54;100.00;99260.97;4971859;28;20027;-76
2023/09/14 03:54:49;;;;;;;5.00;3.15;;;;;;;14.63;100.00;99278.75;4952036;28;20113;-76
2023/09/14 03:57:14;;;;;;;5.15;3.40;;;;;;;14.52;100.00;99254.91;4970538;28;20103;-77
2023/09/14 03:59:41;;;;;;;6.43;2.75;;;;;;;14.48;100.00;99258.06;4948843;28;20025;-73
2023/09/14 04:02:08;;;;;;;4.22;3.25;;;;;;;14.69;100.00;99283.31;4963155;28;20031;-74
2023/09/14 04:04:33;;;;;;;5.95;3.00;;;;;;;14.75;100.00;99284.31;4973590;28;20258;-72
2023/09/14 04:06:59;;;;;;;3.97;3.08;;;;;;;14.83;100.00;99275.94;4987112;28;20066;-74
2023/09/14 04:09:25;;;;;;;5.55;3.38;;;;;;;14.73;100.00;99268.22;4969324;28;20112;-74
2023/09/14 04:11:50;;;;;;;5.55;3.28;;;;;;;14.76;100.00;99277.84;4965012;28;20045;-74
2023/09/14 04:14:16;;;;;;;3.28;2.85;;;;;;;14.82;100.00;99283.25;4972308;28;20472;-74
2023/09/14 04:16:41;;;;;;;4.85;3.35;;;;;;;14.81;100.00;99283.47;4958880;28;20022;-74
2023/09/14 04:19:06;;;;;;;4.72;3.00;;;;;;;14.76;100.00;99266.94;4982675;28;20406;-74
2023/09/14 04:21:32;;;;;;;7.03;3.08;;;;;;;14.78;100.00;99270.28;4972651;28;20027;-74
2023/09/14 04:23:57;;;;;;;9.45;3.13;;;;;;;14.78;100.00;99273.03;4974911;28;20034;-74
2023/09/14 04:26:22;;;;;;;5.60;2.78;;;;;;;14.76;100.00;99277.84;4975349;28;20453;-74
2023/09/14 04:28:48;;;;;;;7.93;2.72;;;;;;;14.68;100.00;99274.31;4971764;28;20394;-77
2023/09/14 04:31:13;;;;;;;7.75;2.60;;;;;;;14.73;100.00;99291.91;4967683;28;20042;-74
2023/09/14 04:33:42;;;;;;;7.63;3.17;;;;;;;14.61;100.00;99281.69;4951947;28;20031;-76
2023/09/14 04:36:07;;;;;;;4.82;2.90;;;;;;;14.60;100.00;99284.66;4963913;28;20405;-75
2023/09/14 04:38:33;;;;;;;4.88;2.85;;;;;;;14.65;100.00;99293.81;4970175;28;20031;-77
2023/09/14 04:41:02;;;;;;;4.88;2.60;;;;;;;14.60;100.00;99298.25;4971107;28;20026;-76
2023/09/14 04:43:28;;;;;;;4.45;3.10;;;;;;;14.53;100.00;99295.56;4972263;28;20073;-77
2023/09/14 04:45:53;;;;;;;5.63;3.45;;;;;;;14.46;100.00;99298.28;4952587;28;20031;-77
2023/09/14 04:48:19;;;;;;;4.50;3.05;;;;;;;14.42;100.00;99296.22;4957757;28;20598;-76
2023/09/14 04:50:44;;;;;;;4.65;2.90;;;;;;;14.45;100.00;99298.50;4975095;28;20084;-73
2023/09/14 04:53:10;;;;;;;5.63;2.72;;;;;;;14.52;100.00;99309.38;4971035;28;20042;-74
2023/09/14 04:55:35;;;;;;;4.93;2.95;;;;;;;14.54;100.00;99312.72;4945802;28;20125;-73
2023/09/14 04:58:00;;;;;;;4.38;3.17;;;;;;;14.59;100.00;99316.50;4969890;28;20018;-73
2023/09/14 05:00:25;;;;;;;4.65;2.88;;;;;;;14.59;100.00;99291.13;4970773;28;20026;-73
2023/09/14 05:02:51;;;;;;;3.78;2.80;;;;;;;14.75;100.00;99306.13;4967665;28;20030;-74
2023/09/14 05:05:16;;;;;;;5.22;3.47;;;;;;;14.78;100.00;99297.53;4966665;28;20042;-73
2023/09/14 05:07:43;;;;;;;5.57;3.10;;;;;;;14.74;100.00;99304.47;4958756;28;20022;-74
2023/09/14 05:10:08;;;;;;;4.43;2.92;;;;;;;14.78;100.00;99319.34;4972097;28;20070;-74
2023/09/14 05:12:34;;;;;;;3.88;2.40;;;;;;;14.66;100.00;99306.38;4955112;28;20434;-74
2023/09/14 05:14:59;;;;;;;4.93;2.60;;;;;;;14.71;100.00;99302.19;4959664;28;20137;-78
2023/09/14 05:17:24;;;;;;;4.88;2.75;;;;;;;14.82;100.00;99326.81;4958039;28;20374;-77
2023/09/14 05:19:49;;;;;;;5.93;2.97;;;;;;;14.84;100.00;99313.00;4965616;28;20023;-77
2023/09/14 05:22:15;;;;;;;8.43;3.38;;;;;;;14.77;100.00;99323.91;4973836;28;20030;-78
2023/09/14 05:24:41;;;;;;;3.90;2.50;;;;;;;14.86;100.00;99327.25;4972301;28;20479;-79
2023/09/14 05:27:06;;;;;;;4.85;2.20;;;;;;;14.94;100.00;99321.53;4961945;28;20081;-81
2023/09/14 05:29:32;;;;;;;4.97;2.85;;;;;;;14.96;100.00;99319.44;4979345;28;20029;-76
2023/09/14 05:31:57;;;;;;;4.57;2.72;;;;;;;14.97;100.00;99310.19;4981648;28;20033;-76
2023/09/14 05:34:23;;;;;;;5.03;2.47;;;;;;;15.07;100.00;99323.34;4979221;28;20018;-76
2023/09/14 05:36:49;;;;;;;4.38;2.38;;;;;;;15.19;100.00;99320.72;4975302;28;20022;-77
2023/09/14 05:39:14;;;;;;;3.83;2.50;;;;;;;15.18;100.00;99306.28;4968693;28;20528;-76
2023/09/14 05:41:43;;;;;;;5.75;2.58;;;;;;;15.18;100.00;99292.66;4982292;28;20034;-75
2023/09/14 05:44:09;;;;;;;3.72;2.17;;;;;;;15.31;100.00;99308.91;4958208;28;20080;-74
2023/09/14 05:46:35;;;;;;;4.30;2.67;;;;;;;15.38;100.00;99308.00;4953942;28;20058;-73
2023/09/14 05:49:01;;;;;;;5.00;2.40;;;;;;;15.40;100.00;99301.25;4980161;28;20050;-75
2023/09/14 05:51:26;;;;;;;3.95;2.63;;;;;;;15.46;100.00;99314.03;4981373;28;20046;-75
2023/09/14 05:53:51;;;;;;;5.57;2.60;;;;;;;15.57;100.00;99326.94;4966259;28;20400;-72
2023/09/14 05:56:17;;;;;;;3.45;2.45;;;;;;;15.63;100.00;99327.09;4972963;28;20031;-78
2023/09/14 05:58:42;;;;;;;4.30;2.55;;;;;;;15.71;100.00;99318.66;4974303;28;20081;-74
2023/09/14 06:01:07;;;;;;;4.20;2.25;;;;;;;15.60;100.00;99303.00;4975045;28;20038;-78
2023/09/14 06:03:33;;;;;;;3.95;2.40;;;;;;;15.66;100.00;99310.28;4957360;28;20030;-76
2023/09/14 06:05:58;;;;;;;4.40;2.38;;;;;;;15.81;100.00;99304.50;4960805;28;20054;-75
2023/09/14 06:08:23;;;;;;;3.40;2.15;;;;;;;15.95;100.00;99320.50;4950100;28;20062;-75
2023/09/14 06:10:49;;;;;;;3.72;2.15;;;;;;;15.98;100.00;99298.25;4951132;28;20393;-76
2023/09/14 06:13:15;;;;;;;3.75;2.22;;;;;;;16.16;100.00;99323.88;4955155;28;20471;-72
2023/09/14 06:15:40;;;;;;;5.18;2.10;;;;;;;16.33;100.00;99324.94;4970954;28;20027;-75
2023/09/14 06:18:06;;;;;;;5.53;2.53;;;;;;;16.48;100.00;99312.78;4950292;28;20035;-76
2023/09/14 06:20:31;;;;;;;3.80;2.20;;;;;;;16.75;100.00;99316.00;4968546;28;20671;-75
2023/09/14 06:22:57;;;;;;;5.25;2.40;;;;;;;16.85;100.00;99305.41;4973175;28;20536;-76
2023/09/14 06:25:22;;;;;;;3.42;2.30;;;;;;;17.09;100.00;99320.81;4969182;28;20468;-75
2023/09/14 06:27:47;;;;;;;4.80;2.40;;;;;;;17.26;100.00;99322.84;4969989;28;20351;-72
2023/09/14 06:30:13;;;;;;;4.20;2.10;;;;;;;17.30;100.00;99310.41;4955440;28;20411;-73
2023/09/14 06:32:38;;;;;;;4.85;2.22;;;;;;;17.39;100.00;99319.91;4965719;28;20026;-73
2023/09/14 06:35:04;;;;;;;3.75;1.95;;;;;;;17.49;100.00;99305.66;4972586;28;20105;-72
2023/09/14 06:37:30;;;;;;;3.80;2.05;;;;;;;17.75;100.00;99307.09;4979968;28;20033;-73
2023/09/14 06:39:55;;;;;;;3.55;1.95;;;;;;;17.62;100.00;99302.69;4982024;28;20026;-73
2023/09/14 06:42:20;;;;;;;4.45;2.20;;;;;;;17.86;100.00;99302.72;4979363;28;20190;-73
2023/09/14 06:44:45;;;;;;;3.15;2.00;;;;;;;18.19;100.00;99310.31;4981624;28;20027;-71
2023/09/14 06:47:11;;;;;;;3.40;2.30;;;;;;;18.62;100.00;99307.09;4966579;28;20027;-72
2023/09/14 06:49:36;;;;;;;4.55;1.95;;;;;;;18.72;100.00;99301.00;4965788;28;20491;-75
2023/09/14 06:52:03;;;;;;;4.82;2.25;;;;;;;18.63;100.00;99302.47;4956337;28;20034;-70
2023/09/14 06:54:28;;;;;;;6.55;2.30;;;;;;;18.48;100.00;99278.34;4970625;28;20026;-72
2023/09/14 06:56:53;;;;;;;3.10;1.90;;;;;;;18.85;100.00;99307.31;4977255;28;20038;-74
2023/09/14 06:59:25;;;;;;;3.95;2.08;;;;;;;18.93;100.00;99305.00;5164457;27;20394;-55
2023/09/14 07:01:51;;;;;;;6.32;2.63;;;;;;;19.12;100.00;99304.78;5127465;27;20483;-55
2023/09/14 07:04:16;;;;;;;7.85;2.35;;;;;;;19.39;100.00;99294.84;5128357;27;20110;-56
2023/09/14 07:06:42;;;;;;;4.75;2.10;;;;;;;19.47;100.00;99296.34;5135975;27;20031;-56
2023/09/14 07:09:07;;;;;;;6.55;2.83;;;;;;;19.38;100.00;99293.16;5138137;27;20080;-56
2023/09/14 07:11:34;;;;;;;4.97;2.85;;;;;;;19.24;100.00;99303.63;5119436;27;20031;-56
2023/09/14 07:14:00;;;;;;;5.75;2.40;;;;;;;19.55;100.00;99295.09;5135141;27;20033;-56
2023/09/14 07:16:25;;;;;;;8.00;2.28;;;;;;;19.03;100.00;99274.19;5131822;27;20114;-56
2023/09/14 07:18:51;;;;;;;9.85;2.70;;;;;;;19.17;100.00;99307.63;5135290;27;20115;-55
2023/09/14 07:21:16;;;;;;;7.85;2.75;;;;;;;19.27;100.00;99305.88;5118430;27;20088;-56
2023/09/14 07:23:42;;;;;;;6.22;2.17;;;;;;;19.24;100.00;99308.28;5121822;27;20049;-56
2023/09/14 07:26:07;;;;;;;15.60;3.60;;;;;;;19.28;100.00;99301.22;5121217;27;20395;-56
2023/09/14 07:28:33;;;;;;;54.88;7.40;;;;;;;19.51;100.00;99307.66;5136341;27;20027;-56
2023/09/14 07:31:04;;;;;;;11.98;2.85;;;;;;;19.59;100.00;99299.00;5120291;27;20031;-56
2023/09/14 07:33:30;;;;;;;8.30;2.10;;;;;;;19.86;100.00;99310.16;5137072;27;20050;-55
2023/09/14 07:35:55;;;;;;;4.90;2.40;;;;;;;20.25;100.00;99310.13;5128223;27;20087;-56
2023/09/14 07:38:21;;;;;;;4.07;2.00;;;;;;;20.62;100.00;99307.66;5119555;27;20023;-56
2023/09/14 07:40:47;;;;;;;5.05;1.80;;;;;;;20.77;100.00;99307.78;5127337;27;20043;-56
2023/09/14 07:43:12;;;;;;;4.55;2.22;;;;;;;21.33;100.00;99320.50;5114860;27;20023;-56
2023/09/14 07:45:38;;;;;;;4.45;2.40;;;;;;;21.31;100.00;99320.75;5124607;27;20126;-56
2023/09/14 07:48:05;;;;;;;4.47;2.15;;;;;;;20.86;100.00;99323.88;5114464;27;20026;-56
2023/09/14 07:50:39;;;;;;;3.50;2.00;;;;;;;21.08;100.00;99321.06;5138520;27;20037;-56
2023/09/14 07:53:05;;;;;;;4.20;2.20;;;;;;;21.51;100.00;99320.13;5125435;27;20470;-56
2023/09/14 07:55:31;;;;;;;5.97;1.90;;;;;;;22.03;100.00;99321.31;5122598;27;20022;-56
2023/09/14 07:57:57;;;;;;;5.55;1.80;;;;;;;22.40;100.00;99332.31;5117367;27;20020;-56
2023/09/14 08:00:22;;;;;;;4.88;2.22;;;;;;;22.50;100.00;99334.28;5121761;27;21767;-55
2023/09/14 08:02:47;;;;;;;4.32;1.88;;;;;;;22.66;100.00;99329.66;5130301;27;20034;-56
2023/09/14 08:05:13;;;;;;;5.15;1.90;;;;;;;23.33;100.00;99326.00;5123152;27;20023;-55
2023/09/14 08:07:38;;;;;;;3.95;2.15;;;;;;;24.02;100.00;99323.78;5116139;27;20058;-56
2023/09/14 08:10:04;;;;;;;4.05;2.35;;;;;;;24.16;100.00;99327.66;5119586;27;20024;-56
2023/09/14 08:12:29;;;;;;;4.53;2.30;;;;;;;24.74;100.00;99329.97;5105142;27;20061;-56
2023/09/14 08:14:55;;;;;;;4.32;1.90;;;;;;;24.66;100.00;99331.38;5117350;27;20026;-56
2023/09/14 08:17:20;;;;;;;6.85;2.05;;;;;;;24.48;100.00;99321.78;5108533;27;20027;-56
2023/09/14 08:19:45;;;;;;;6.10;2.40;;;;;;;24.50;100.00;99327.03;5099425;27;20038;-56
2023/09/14 08:22:11;;;;;;;3.63;1.80;;;;;;;24.39;100.00;99336.41;5109455;27;20023;-56
2023/09/14 08:24:36;;;;;;;5.20;2.40;;;;;;;24.74;100.00;99329.16;5112917;27;20034;-56
2023/09/14 08:27:02;;;;;;;3.70;2.08;;;;;;;25.54;100.00;99337.25;5106571;27;20019;-56
2023/09/14 08:29:27;;;;;;;3.65;1.77;;;;;;;26.17;100.00;99334.50;5106369;27;20364;-56
2023/09/14 08:31:53;;;;;;;5.57;1.90;;;;;;;25.84;100.00;99341.75;5127452;27;20087;-56
2023/09/14 08:34:18;;;;;;;3.58;1.77;;;;;;;25.95;100.00;99348.84;5122010;27;20023;-56
2023/09/14 08:36:43;;;;;;;3.08;1.65;;;;;;;25.32;100.00;99346.00;5123452;27;20031;-56
2023/09/14 08:39:09;;;;;;;3.33;1.85;;;;;;;24.60;100.00;99349.13;5107752;27;20049;-56
2023/09/14 08:41:40;;;;;;;4.22;1.90;;;;;;;24.17;100.00;99348.66;5108875;27;20023;-56
2023/09/14 08:44:07;;;;;;;3.97;2.10;;;;;;;23.79;100.00;99358.38;5113965;27;20022;-56
2023/09/14 08:46:34;;;;;;;2.63;1.65;;;;;;;23.31;100.00;99349.47;5105172;27;20019;-56
2023/09/14 08:49:00;;;;;;;2.25;1.75;;;;;;;23.71;100.00;99350.59;5110273;27;20067;-56
2023/09/14 08:51:29;;;;;;;7.60;2.13;;;;;;;24.12;100.00;99345.06;5126526;27;20105;-56
2023/09/14 08:53:55;;;;;;;2.58;2.05;;;;;;;24.47;100.00;99347.78;5115969;27;20115;-56
2023/09/14 08:56:22;;;;;;;2.83;1.90;;;;;;;24.43;100.00;99346.66;5109394;27;20380;-56
2023/09/14 08:58:48;;;;;;;6.60;2.13;;;;;;;23.74;100.00;99333.53;5108991;27;20019;-56
2023/09/14 09:01:17;;;;;;;5.80;2.20;;;;;;;24.52;100.00;99340.56;5105432;27;20080;-56
2023/09/14 09:03:43;;;;;;;5.40;2.47;;;;;;;24.51;100.00;99348.03;5099783;27;20066;-56
2023/09/14 09:06:09;;;;;;;3.25;2.15;;;;;;;24.19;100.00;99343.66;5111867;27;20042;-56
2023/09/14 09:08:36;;;;;;;3.03;1.85;;;;;;;23.84;100.00;99339.88;5098920;27;20019;-56
2023/09/14 09:11:02;;;;;;;4.75;2.40;;;;;;;24.02;100.00;99338.44;5097324;27;20027;-60
2023/09/14 09:13:40;;;;;;;6.18;2.05;;;;;;;24.47;100.00;99341.41;5103539;27;20040;-61
2023/09/14 09:16:05;;;;;;;5.65;2.03;;;;;;;24.04;100.00;99330.69;5120570;27;20023;-60
2023/09/14 09:18:30;;;;;;;4.20;2.25;;;;;;;24.30;100.00;99330.66;5125628;27;20024;-59
2023/09/14 09:20:57;;;;;;;3.97;1.70;;;;;;;24.92;100.00;99331.28;5108265;27;20035;-60
2023/09/14 09:23:25;;;;;;;3.95;2.00;;;;;;;25.93;100.00;99333.63;5115147;27;20031;-60
2023/09/14 09:25:54;;;;;;;6.78;2.95;;;;;;;24.97;100.00;99333.16;5122847;27;20461;-60
2023/09/14 09:28:27;;;;;;;3.78;2.30;;;;;;;25.24;100.00;99335.53;5104235;27;20054;-60
2023/09/14 09:30:54;;;;;;;4.85;2.67;;;;;;;25.35;100.00;99328.81;5107163;27;20023;-60
2023/09/14 09:33:35;;;;;;;4.32;2.20;;;;;;;25.84;100.00;99336.19;5122845;27;20113;-60
2023/09/14 09:36:16;;;;;;;8.75;2.70;;;;;;;24.71;100.00;99338.84;5104138;27;20102;-60
2023/09/14 09:38:42;;;;;;;4.40;1.95;;;;;;;24.69;100.00;99339.13;5095138;27;20023;-60
2023/09/14 09:41:11;;;;;;;7.18;2.97;;;;;;;24.25;100.00;99344.50;5106728;27;20031;-60
2023/09/14 09:43:41;;;;;;;6.47;2.55;;;;;;;24.00;100.00;99342.63;5111688;27;20026;-60
2023/09/14 09:46:14;;;;;;;4.68;2.28;;;;;;;24.14;100.00;99335.38;5110471;27;20057;-60
2023/09/14 09:48:41;;;;;;;4.88;2.10;;;;;;;24.41;100.00;99337.78;5103760;27;20336;-57
2023/09/14 09:51:06;;;;;;;6.00;3.28;;;;;;;23.59;100.00;99337.06;5095271;28;20493;-55
2023/09/14 09:53:32;;;;;;;4.93;2.63;;;;;;;24.01;100.00;99333.22;5109319;27;20026;-55
2023/09/14 09:55:57;;;;;;;2.80;1.70;;;;;;;24.66;100.00;99328.63;5114841;27;20122;-54
2023/09/14 09:58:37;;;;;;;4.00;1.95;;;;;;;25.42;100.00;99340.41;5118333;27;20106;-55
2023/09/14 10:01:02;;;;;;;5.22;2.90;;;;;;;25.94;100.00;99349.16;5102054;27;20498;-55
2023/09/14 10:03:30;;;;;;;3.47;1.90;;;;;;;26.35;100.00;99346.75;5123830;27;20142;-55
2023/09/14 10:05:55;;;;;;;5.20;2.35;;;;;;;26.20;100.00;99341.41;5110078;27;20039;-55
2023/09/14 10:08:21;;;;;;;6.20;2.58;;;;;;;25.66;100.00;99350.75;5112521;27;20096;-55
2023/09/14 10:10:51;;;;;;;4.28;2.60;;;;;;;26.09;100.00;99353.69;5125820;27;20021;-55
2023/09/14 10:13:26;;;;;;;4.65;2.08;;;;;;;26.33;100.00;99351.81;5112600;27;20034;-54
2023/09/14 10:15:56;;;;;;;4.15;2.10;;;;;;;26.73;100.00;99349.69;5109495;27;20066;-55
2023/09/14 10:18:22;;;;;;;4.30;2.40;;;;;;;27.18;95.36;99346.63;5105469;27;20069;-55
2023/09/14 10:20:51;;;;;;;5.63;1.85;;;;;;;27.19;86.53;99337.97;5112890;27;20090;-55
2023/09/14 10:23:18;;;;;;;3.55;2.20;;;;;;;26.97;86.01;99346.06;5104558;27;20153;-54
2023/09/14 10:25:53;;;;;;;4.63;2.33;;;;;;;28.08;83.66;99339.88;5119609;27;20629;-55
2023/09/14 10:28:22;;;;;;;4.20;1.98;;;;;;;31.64;69.64;99332.31;5112750;27;20432;-55
2023/09/14 10:30:49;;;;;;;3.78;2.67;;;;;;;33.03;55.94;99331.84;5100866;27;20023;-55
2023/09/14 10:33:16;;;;;;;3.67;2.30;;;;;;;33.37;55.98;99327.97;5107804;28;20027;-55
2023/09/14 10:35:42;;;;;;;3.90;1.55;;;;;;;32.97;57.00;99324.78;5106679;27;20018;-55
2023/09/14 10:38:08;;;;;;;4.28;2.30;;;;;;;32.15;57.28;99329.75;5104609;27;20027;-55
2023/09/14 10:40:37;;;;;;;6.50;2.50;;;;;;;31.37;58.64;99319.47;5120648;27;20027;-55
2023/09/14 10:43:07;;;;;;;1.95;1.58;;;;;;;31.76;59.56;99331.66;5116677;27;20452;-55
2023/09/14 10:45:39;;;;;;;4.25;1.63;;;;;;;31.49;58.71;99325.25;5097738;27;20053;-55
2023/09/14 10:48:09;;;;;;;2.47;1.58;;;;;;;32.15;58.67;99318.56;5109346;27;20019;-53
2023/09/14 10:50:35;;;;;;;3.25;1.90;;;;;;;32.60;56.09;99323.69;5108876;27;20366;-53
2023/09/14 10:53:01;;;;;;;3.53;1.77;;;;;;;35.78;50.60;99319.91;5109679;27;20020;-54
2023/09/14 10:55:27;;;;;;;3.80;1.75;;;;;;;38.23;45.02;99308.28;5109234;27;20030;-54
2023/09/14 10:57:52;;;;;;;2.42;1.52;;;;;;;38.91;41.12;99322.72;5108354;28;20027;-55
2023/09/14 11:00:36;;;;;;;3.13;1.92;;;;;;;35.29;45.07;99315.31;5111073;27;20038;-55
2023/09/14 11:03:03;;;;;;;3.40;1.60;;;;;;;35.16;46.89;99310.03;5102365;27;20028;-55
2023/09/14 11:05:47;;;;;;;5.25;2.08;;;;;;;33.23;48.92;99306.97;5101327;28;20027;-55
2023/09/14 11:08:14;;;;;;;3.78;1.63;;;;;;;32.00;51.55;99308.75;5096145;28;20043;-55
2023/09/14 11:10:52;;;;;;;3.20;1.77;;;;;;;31.91;52.41;99305.91;5099123;27;20026;-54
2023/09/14 11:13:21;;;;;;;3.25;2.13;;;;;;;32.04;52.03;99292.91;5110363;28;20023;-54
2023/09/14 11:15:47;;;;;;;3.47;1.98;;;;;;;32.84;50.02;99292.22;5114615;27;20427;-54
2023/09/14 11:18:29;;;;;;;5.82;2.33;;;;;;;34.07;48.61;99282.41;5103030;28;20363;-55
2023/09/14 11:20:55;;;;;;;2.72;1.90;;;;;;;37.68;43.13;99285.03;5103884;27;20474;-49
2023/09/14 11:23:32;;;;;;;3.85;1.98;;;;;;;37.74;42.29;99283.53;5096186;28;20034;-49
2023/09/14 11:26:04;;;;;;;2.95;1.67;;;;;;;39.85;38.69;99280.28;5127331;27;20525;-49